sensor_id;sensor_type;location;lat;lon;timestamp;P1;durP1;ratioP1;P2;durP2;ratioP2
23782;SDS011;12071;50.850;4.446;2022-08-01T00:02:13;3.45;;;1.55;;
23782;SDS011;12071;50.850;4.446;2022-08-01T00:04:39;3.72;;;1.50;;
23782;SDS011;12071;50.850;4.446;2022-08-01T00:07:05;3.88;;;1.80;;
23782;SDS011;12071;50.850;4.446;2022-08-01T00:09:30;5.85;;;2.10;;
23782;SDS011;12071;50.850;4.446;2022-08-01T00:11:56;2.78;;;1.90;;
23782;SDS011;12071;50.850;4.446;2022-08-01T00:14:22;6.88;;;2.05;;
23782;SDS011;12071;50.850;4.446;2022-08-01T00:16:48;4.78;;;2.63;;
23782;SDS011;12071;50.850;4.446;2022-08-01T00:19:13;9.20;;;3.92;;
23782;SDS011;12071;50.850;4.446;2022-08-01T00:21:39;6.32;;;3.70;;
23782;SDS011;12071;50.850;4.446;2022-08-01T00:24:04;8.02;;;3.53;;
23782;SDS011;12071;50.850;4.446;2022-08-01T00:26:30;4.50;;;3.33;;
23782;SDS011;12071;50.850;4.446;2022-08-01T00:28:56;5.25;;;3.72;;
23782;SDS011;12071;50.850;4.446;2022-08-01T00:31:21;6.35;;;3.42;;
23782;SDS011;12071;50.850;4.446;2022-08-01T00:33:47;10.48;;;4.05;;
23782;SDS011;12071;50.850;4.446;2022-08-01T00:36:12;7.82;;;4.00;;
23782;SDS011;12071;50.850;4.446;2022-08-01T00:38:38;9.88;;;4.13;;
23782;SDS011;12071;50.850;4.446;2022-08-01T00:41:04;8.07;;;3.60;;
23782;SDS011;12071;50.850;4.446;2022-08-01T00:43:29;8.75;;;3.90;;
23782;SDS011;12071;50.850;4.446;2022-08-01T00:45:55;9.98;;;4.20;;
23782;SDS011;12071;50.850;4.446;2022-08-01T00:48:20;6.50;;;3.60;;
23782;SDS011;12071;50.850;4.446;2022-08-01T00:50:46;5.25;;;3.47;;
23782;SDS011;12071;50.850;4.446;2022-08-01T00:53:12;7.03;;;3.60;;
23782;SDS011;12071;50.850;4.446;2022-08-01T00:55:38;7.90;;;4.15;;
23782;SDS011;12071;50.850;4.446;2022-08-01T00:58:03;8.30;;;3.75;;
23782;SDS011;12071;50.850;4.446;2022-08-01T01:00:29;6.88;;;3.85;;
23782;SDS011;12071;50.850;4.446;2022-08-01T01:02:55;7.50;;;3.72;;
23782;SDS011;12071;50.850;4.446;2022-08-01T01:05:21;6.90;;;3.42;;
23782;SDS011;12071;50.850;4.446;2022-08-01T01:08:04;8.40;;;4.13;;
23782;SDS011;12071;50.850;4.446;2022-08-01T01:13:13;6.30;;;3.58;;
23782;SDS011;12071;50.850;4.446;2022-08-01T01:15:56;7.93;;;3.42;;
23782;SDS011;12071;50.850;4.446;2022-08-01T01:26:36;6.28;;;3.38;;
23782;SDS011;12071;50.850;4.446;2022-08-01T01:34:49;5.53;;;3.28;;
23782;SDS011;12071;50.850;4.446;2022-08-01T01:37:20;6.53;;;2.92;;
23782;SDS011;12071;50.850;4.446;2022-08-01T01:39:49;5.68;;;2.90;;
23782;SDS011;12071;50.850;4.446;2022-08-01T01:42:16;6.00;;;3.13;;
23782;SDS011;12071;50.850;4.446;2022-08-01T01:44:43;7.07;;;3.10;;
23782;SDS011;12071;50.850;4.446;2022-08-01T01:47:13;6.53;;;3.10;;
23782;SDS011;12071;50.850;4.446;2022-08-01T01:49:41;6.80;;;3.67;;
23782;SDS011;12071;50.850;4.446;2022-08-01T01:52:10;8.13;;;4.30;;
23782;SDS011;12071;50.850;4.446;2022-08-01T01:54:39;7.25;;;4.72;;
23782;SDS011;12071;50.850;4.446;2022-08-01T01:57:07;7.55;;;4.65;;
23782;SDS011;12071;50.850;4.446;2022-08-01T01:59:34;8.68;;;5.35;;
23782;SDS011;12071;50.850;4.446;2022-08-01T02:02:03;8.20;;;4.80;;
23782;SDS011;12071;50.850;4.446;2022-08-01T02:04:31;14.52;;;7.78;;
23782;SDS011;12071;50.850;4.446;2022-08-01T02:07:00;12.48;;;6.85;;
23782;SDS011;12071;50.850;4.446;2022-08-01T02:09:28;12.38;;;7.05;;
23782;SDS011;12071;50.850;4.446;2022-08-01T02:11:54;16.30;;;9.40;;
23782;SDS011;12071;50.850;4.446;2022-08-01T02:14:20;15.90;;;9.38;;
23782;SDS011;12071;50.850;4.446;2022-08-01T02:16:48;16.02;;;9.48;;
23782;SDS011;12071;50.850;4.446;2022-08-01T02:19:17;14.57;;;8.95;;
23782;SDS011;12071;50.850;4.446;2022-08-01T02:21:57;17.50;;;9.60;;
23782;SDS011;12071;50.850;4.446;2022-08-01T02:24:32;19.20;;;9.15;;
23782;SDS011;12071;50.850;4.446;2022-08-01T02:27:09;15.88;;;9.02;;
23782;SDS011;12071;50.850;4.446;2022-08-01T02:29:39;15.63;;;9.20;;
23782;SDS011;12071;50.850;4.446;2022-08-01T02:32:10;14.93;;;8.52;;
23782;SDS011;12071;50.850;4.446;2022-08-01T02:34:41;12.57;;;7.90;;
23782;SDS011;12071;50.850;4.446;2022-08-01T02:37:11;14.40;;;8.02;;
23782;SDS011;12071;50.850;4.446;2022-08-01T02:39:37;14.15;;;8.15;;
23782;SDS011;12071;50.850;4.446;2022-08-01T02:42:04;15.95;;;8.25;;
23782;SDS011;12071;50.850;4.446;2022-08-01T02:44:35;11.18;;;7.53;;
23782;SDS011;12071;50.850;4.446;2022-08-01T02:47:04;14.55;;;7.75;;
23782;SDS011;12071;50.850;4.446;2022-08-01T02:49:35;14.18;;;7.90;;
23782;SDS011;12071;50.850;4.446;2022-08-01T02:52:04;13.73;;;8.32;;
23782;SDS011;12071;50.850;4.446;2022-08-01T02:54:32;19.00;;;8.50;;
23782;SDS011;12071;50.850;4.446;2022-08-01T02:57:00;16.55;;;9.38;;
23782;SDS011;12071;50.850;4.446;2022-08-01T02:59:27;18.00;;;9.43;;
23782;SDS011;12071;50.850;4.446;2022-08-01T03:01:56;17.77;;;9.95;;
23782;SDS011;12071;50.850;4.446;2022-08-01T03:04:24;16.55;;;9.00;;
23782;SDS011;12071;50.850;4.446;2022-08-01T03:06:51;19.15;;;9.88;;
23782;SDS011;12071;50.850;4.446;2022-08-01T03:09:19;23.85;;;10.63;;
23782;SDS011;12071;50.850;4.446;2022-08-01T03:11:45;17.52;;;9.82;;
23782;SDS011;12071;50.850;4.446;2022-08-01T03:14:13;24.42;;;13.45;;
23782;SDS011;12071;50.850;4.446;2022-08-01T03:16:40;23.27;;;13.15;;
23782;SDS011;12071;50.850;4.446;2022-08-01T03:19:08;27.67;;;13.55;;
23782;SDS011;12071;50.850;4.446;2022-08-01T03:21:35;26.35;;;13.10;;
23782;SDS011;12071;50.850;4.446;2022-08-01T03:24:03;23.58;;;12.65;;
23782;SDS011;12071;50.850;4.446;2022-08-01T03:26:32;23.15;;;12.55;;
23782;SDS011;12071;50.850;4.446;2022-08-01T03:29:08;23.33;;;12.65;;
23782;SDS011;12071;50.850;4.446;2022-08-01T03:31:39;27.05;;;13.55;;
23782;SDS011;12071;50.850;4.446;2022-08-01T03:34:08;22.70;;;12.35;;
23782;SDS011;12071;50.850;4.446;2022-08-01T03:36:34;24.45;;;12.32;;
23782;SDS011;12071;50.850;4.446;2022-08-01T03:39:14;22.65;;;11.82;;
23782;SDS011;12071;50.850;4.446;2022-08-01T03:41:43;20.73;;;10.65;;
23782;SDS011;12071;50.850;4.446;2022-08-01T03:46:42;22.25;;;11.55;;
23782;SDS011;12071;50.850;4.446;2022-08-01T03:49:12;26.45;;;12.15;;
23782;SDS011;12071;50.850;4.446;2022-08-01T03:51:42;27.73;;;12.80;;
23782;SDS011;12071;50.850;4.446;2022-08-01T03:54:11;22.27;;;12.27;;
23782;SDS011;12071;50.850;4.446;2022-08-01T03:56:39;23.38;;;11.85;;
23782;SDS011;12071;50.850;4.446;2022-08-01T03:59:06;23.88;;;11.73;;
23782;SDS011;12071;50.850;4.446;2022-08-01T04:01:33;27.55;;;12.25;;
23782;SDS011;12071;50.850;4.446;2022-08-01T04:04:00;30.40;;;13.68;;
23782;SDS011;12071;50.850;4.446;2022-08-01T04:06:26;25.98;;;14.13;;
23782;SDS011;12071;50.850;4.446;2022-08-01T04:08:52;24.38;;;13.88;;
23782;SDS011;12071;50.850;4.446;2022-08-01T04:11:26;28.05;;;15.15;;
23782;SDS011;12071;50.850;4.446;2022-08-01T04:13:53;32.73;;;15.87;;
23782;SDS011;12071;50.850;4.446;2022-08-01T04:16:19;28.85;;;15.18;;
23782;SDS011;12071;50.850;4.446;2022-08-01T04:18:46;36.17;;;16.05;;
23782;SDS011;12071;50.850;4.446;2022-08-01T04:21:12;35.40;;;15.60;;
23782;SDS011;12071;50.850;4.446;2022-08-01T04:23:38;28.95;;;15.57;;
23782;SDS011;12071;50.850;4.446;2022-08-01T04:26:06;29.45;;;15.93;;
23782;SDS011;12071;50.850;4.446;2022-08-01T04:28:34;30.70;;;16.27;;
23782;SDS011;12071;50.850;4.446;2022-08-01T04:31:02;27.92;;;15.35;;
23782;SDS011;12071;50.850;4.446;2022-08-01T04:33:30;29.20;;;15.80;;
23782;SDS011;12071;50.850;4.446;2022-08-01T04:35:56;32.17;;;16.35;;
23782;SDS011;12071;50.850;4.446;2022-08-01T04:38:25;25.73;;;15.15;;
23782;SDS011;12071;50.850;4.446;2022-08-01T04:40:54;23.80;;;14.85;;
23782;SDS011;12071;50.850;4.446;2022-08-01T04:43:21;27.15;;;15.73;;
23782;SDS011;12071;50.850;4.446;2022-08-01T04:45:47;25.80;;;16.73;;
23782;SDS011;12071;50.850;4.446;2022-08-01T04:48:15;25.35;;;16.92;;
23782;SDS011;12071;50.850;4.446;2022-08-01T04:50:43;27.52;;;17.15;;
23782;SDS011;12071;50.850;4.446;2022-08-01T04:53:17;31.10;;;17.42;;
23782;SDS011;12071;50.850;4.446;2022-08-01T04:55:46;27.83;;;17.00;;
23782;SDS011;12071;50.850;4.446;2022-08-01T04:58:12;29.38;;;16.98;;
23782;SDS011;12071;50.850;4.446;2022-08-01T05:00:39;31.60;;;17.45;;
23782;SDS011;12071;50.850;4.446;2022-08-01T05:03:05;31.02;;;17.67;;
23782;SDS011;12071;50.850;4.446;2022-08-01T05:05:31;27.00;;;17.38;;
23782;SDS011;12071;50.850;4.446;2022-08-01T05:07:57;31.70;;;17.15;;
23782;SDS011;12071;50.850;4.446;2022-08-01T05:10:23;27.75;;;16.67;;
23782;SDS011;12071;50.850;4.446;2022-08-01T05:12:48;28.20;;;16.98;;
23782;SDS011;12071;50.850;4.446;2022-08-01T05:15:15;26.85;;;17.45;;
23782;SDS011;12071;50.850;4.446;2022-08-01T05:17:41;27.48;;;16.23;;
23782;SDS011;12071;50.850;4.446;2022-08-01T05:20:07;27.55;;;15.77;;
23782;SDS011;12071;50.850;4.446;2022-08-01T05:22:33;21.20;;;15.25;;
23782;SDS011;12071;50.850;4.446;2022-08-01T05:24:59;24.92;;;15.85;;
23782;SDS011;12071;50.850;4.446;2022-08-01T05:27:25;22.13;;;13.98;;
23782;SDS011;12071;50.850;4.446;2022-08-01T05:29:50;20.98;;;13.90;;
23782;SDS011;12071;50.850;4.446;2022-08-01T05:32:16;19.83;;;12.23;;
23782;SDS011;12071;50.850;4.446;2022-08-01T05:34:42;15.07;;;9.13;;
23782;SDS011;12071;50.850;4.446;2022-08-01T05:37:11;17.10;;;10.32;;
23782;SDS011;12071;50.850;4.446;2022-08-01T05:39:37;15.05;;;9.95;;
23782;SDS011;12071;50.850;4.446;2022-08-01T05:42:02;15.68;;;9.10;;
23782;SDS011;12071;50.850;4.446;2022-08-01T05:44:28;13.02;;;9.02;;
23782;SDS011;12071;50.850;4.446;2022-08-01T05:46:53;15.63;;;9.65;;
23782;SDS011;12071;50.850;4.446;2022-08-01T05:49:19;13.18;;;8.45;;
23782;SDS011;12071;50.850;4.446;2022-08-01T05:51:45;18.05;;;9.15;;
23782;SDS011;12071;50.850;4.446;2022-08-01T05:54:10;12.38;;;8.48;;
23782;SDS011;12071;50.850;4.446;2022-08-01T05:56:36;13.38;;;8.20;;
23782;SDS011;12071;50.850;4.446;2022-08-01T05:59:02;11.75;;;7.75;;
23782;SDS011;12071;50.850;4.446;2022-08-01T06:01:27;11.70;;;7.90;;
23782;SDS011;12071;50.850;4.446;2022-08-01T06:03:53;11.05;;;7.18;;
23782;SDS011;12071;50.850;4.446;2022-08-01T06:06:19;11.85;;;7.68;;
23782;SDS011;12071;50.850;4.446;2022-08-01T06:08:45;12.57;;;7.55;;
23782;SDS011;12071;50.850;4.446;2022-08-01T06:11:11;15.93;;;7.93;;
23782;SDS011;12071;50.850;4.446;2022-08-01T06:13:37;9.23;;;7.30;;
23782;SDS011;12071;50.850;4.446;2022-08-01T06:16:03;12.05;;;7.05;;
23782;SDS011;12071;50.850;4.446;2022-08-01T06:18:29;12.15;;;6.57;;
23782;SDS011;12071;50.850;4.446;2022-08-01T06:20:54;11.57;;;6.45;;
23782;SDS011;12071;50.850;4.446;2022-08-01T06:23:20;13.30;;;7.43;;
23782;SDS011;12071;50.850;4.446;2022-08-01T06:25:46;13.82;;;8.07;;
23782;SDS011;12071;50.850;4.446;2022-08-01T06:28:12;12.63;;;7.97;;
23782;SDS011;12071;50.850;4.446;2022-08-01T06:30:38;14.90;;;7.28;;
23782;SDS011;12071;50.850;4.446;2022-08-01T06:33:04;10.15;;;6.35;;
23782;SDS011;12071;50.850;4.446;2022-08-01T06:35:29;9.25;;;6.40;;
23782;SDS011;12071;50.850;4.446;2022-08-01T06:37:56;10.07;;;6.80;;
23782;SDS011;12071;50.850;4.446;2022-08-01T06:40:22;8.35;;;5.82;;
23782;SDS011;12071;50.850;4.446;2022-08-01T06:42:48;8.10;;;5.60;;
23782;SDS011;12071;50.850;4.446;2022-08-01T06:45:14;9.75;;;6.15;;
23782;SDS011;12071;50.850;4.446;2022-08-01T06:47:41;6.40;;;4.20;;
23782;SDS011;12071;50.850;4.446;2022-08-01T06:50:07;9.43;;;5.10;;
23782;SDS011;12071;50.850;4.446;2022-08-01T06:52:34;13.50;;;5.20;;
23782;SDS011;12071;50.850;4.446;2022-08-01T06:55:00;5.32;;;4.22;;
23782;SDS011;12071;50.850;4.446;2022-08-01T06:57:26;7.45;;;4.30;;
23782;SDS011;12071;50.850;4.446;2022-08-01T06:59:52;8.02;;;4.82;;
23782;SDS011;12071;50.850;4.446;2022-08-01T07:02:18;9.85;;;5.20;;
23782;SDS011;12071;50.850;4.446;2022-08-01T07:04:44;7.82;;;4.28;;
23782;SDS011;12071;50.850;4.446;2022-08-01T07:07:10;5.60;;;4.40;;
23782;SDS011;12071;50.850;4.446;2022-08-01T07:09:35;6.45;;;4.00;;
23782;SDS011;12071;50.850;4.446;2022-08-01T07:12:02;6.70;;;4.47;;
23782;SDS011;12071;50.850;4.446;2022-08-01T07:14:28;7.18;;;4.88;;
23782;SDS011;12071;50.850;4.446;2022-08-01T07:16:53;6.55;;;4.35;;
23782;SDS011;12071;50.850;4.446;2022-08-01T07:19:19;6.20;;;4.20;;
23782;SDS011;12071;50.850;4.446;2022-08-01T07:21:45;7.93;;;4.10;;
23782;SDS011;12071;50.850;4.446;2022-08-01T07:24:12;7.05;;;4.00;;
23782;SDS011;12071;50.850;4.446;2022-08-01T07:26:42;7.10;;;3.88;;
23782;SDS011;12071;50.850;4.446;2022-08-01T07:29:09;6.03;;;3.27;;
23782;SDS011;12071;50.850;4.446;2022-08-01T07:31:35;7.63;;;3.25;;
23782;SDS011;12071;50.850;4.446;2022-08-01T07:34:00;5.55;;;3.90;;
23782;SDS011;12071;50.850;4.446;2022-08-01T07:36:26;5.03;;;3.83;;
23782;SDS011;12071;50.850;4.446;2022-08-01T07:38:51;6.95;;;4.00;;
23782;SDS011;12071;50.850;4.446;2022-08-01T07:41:17;4.85;;;3.78;;
23782;SDS011;12071;50.850;4.446;2022-08-01T07:43:43;6.68;;;3.78;;
23782;SDS011;12071;50.850;4.446;2022-08-01T07:46:08;4.13;;;3.55;;
23782;SDS011;12071;50.850;4.446;2022-08-01T07:48:34;5.30;;;2.97;;
23782;SDS011;12071;50.850;4.446;2022-08-01T07:51:00;4.75;;;3.00;;
23782;SDS011;12071;50.850;4.446;2022-08-01T07:53:25;3.72;;;2.85;;
23782;SDS011;12071;50.850;4.446;2022-08-01T07:55:51;3.45;;;2.50;;
23782;SDS011;12071;50.850;4.446;2022-08-01T07:58:17;4.50;;;3.72;;
23782;SDS011;12071;50.850;4.446;2022-08-01T08:00:42;5.00;;;3.35;;
23782;SDS011;12071;50.850;4.446;2022-08-01T08:03:08;3.60;;;3.30;;
23782;SDS011;12071;50.850;4.446;2022-08-01T08:05:34;4.38;;;3.30;;
23782;SDS011;12071;50.850;4.446;2022-08-01T08:08:08;4.65;;;3.22;;
23782;SDS011;12071;50.850;4.446;2022-08-01T08:10:35;4.55;;;2.92;;
23782;SDS011;12071;50.850;4.446;2022-08-01T08:13:01;3.78;;;3.00;;
23782;SDS011;12071;50.850;4.446;2022-08-01T08:15:27;4.45;;;3.30;;
23782;SDS011;12071;50.850;4.446;2022-08-01T08:17:53;5.05;;;3.38;;
23782;SDS011;12071;50.850;4.446;2022-08-01T08:20:22;4.18;;;3.30;;
23782;SDS011;12071;50.850;4.446;2022-08-01T08:22:51;3.78;;;2.60;;
23782;SDS011;12071;50.850;4.446;2022-08-01T08:25:18;3.17;;;2.10;;
23782;SDS011;12071;50.850;4.446;2022-08-01T08:27:44;3.15;;;2.00;;
23782;SDS011;12071;50.850;4.446;2022-08-01T08:30:11;2.92;;;1.90;;
23782;SDS011;12071;50.850;4.446;2022-08-01T08:32:37;3.88;;;1.77;;
23782;SDS011;12071;50.850;4.446;2022-08-01T08:35:03;1.40;;;1.30;;
23782;SDS011;12071;50.850;4.446;2022-08-01T08:37:29;3.70;;;1.30;;
23782;SDS011;12071;50.850;4.446;2022-08-01T08:39:55;2.17;;;1.70;;
23782;SDS011;12071;50.850;4.446;2022-08-01T08:42:21;4.03;;;1.40;;
23782;SDS011;12071;50.850;4.446;2022-08-01T08:44:47;3.05;;;1.45;;
23782;SDS011;12071;50.850;4.446;2022-08-01T08:47:14;2.13;;;1.33;;
23782;SDS011;12071;50.850;4.446;2022-08-01T08:49:42;1.95;;;1.25;;
23782;SDS011;12071;50.850;4.446;2022-08-01T08:52:08;3.40;;;1.50;;
23782;SDS011;12071;50.850;4.446;2022-08-01T08:54:34;4.07;;;1.58;;
23782;SDS011;12071;50.850;4.446;2022-08-01T08:57:01;2.75;;;1.42;;
23782;SDS011;12071;50.850;4.446;2022-08-01T08:59:27;3.95;;;1.20;;
23782;SDS011;12071;50.850;4.446;2022-08-01T09:01:54;2.85;;;1.20;;
23782;SDS011;12071;50.850;4.446;2022-08-01T09:04:20;3.65;;;1.35;;
23782;SDS011;12071;50.850;4.446;2022-08-01T09:06:50;2.88;;;1.20;;
23782;SDS011;12071;50.850;4.446;2022-08-01T09:09:16;2.90;;;1.40;;
23782;SDS011;12071;50.850;4.446;2022-08-01T09:11:42;2.30;;;1.48;;
23782;SDS011;12071;50.850;4.446;2022-08-01T09:16:58;2.30;;;1.47;;
23782;SDS011;12071;50.850;4.446;2022-08-01T09:19:26;2.70;;;1.50;;
23782;SDS011;12071;50.850;4.446;2022-08-01T09:22:04;1.30;;;1.20;;
23782;SDS011;12071;50.850;4.446;2022-08-01T09:24:32;1.92;;;1.20;;
23782;SDS011;12071;50.850;4.446;2022-08-01T09:26:59;1.50;;;1.30;;
23782;SDS011;12071;50.850;4.446;2022-08-01T09:29:26;1.52;;;1.27;;
23782;SDS011;12071;50.850;4.446;2022-08-01T09:31:53;1.35;;;1.13;;
23782;SDS011;12071;50.850;4.446;2022-08-01T09:34:27;1.65;;;1.20;;
23782;SDS011;12071;50.850;4.446;2022-08-01T09:36:56;1.63;;;1.17;;
23782;SDS011;12071;50.850;4.446;2022-08-01T09:42:20;4.13;;;1.50;;
23782;SDS011;12071;50.850;4.446;2022-08-01T09:44:47;2.30;;;1.20;;
23782;SDS011;12071;50.850;4.446;2022-08-01T09:47:14;1.50;;;1.27;;
23782;SDS011;12071;50.850;4.446;2022-08-01T09:49:40;3.47;;;1.30;;
23782;SDS011;12071;50.850;4.446;2022-08-01T09:54:44;2.58;;;1.40;;
23782;SDS011;12071;50.850;4.446;2022-08-01T09:57:18;1.42;;;1.23;;
23782;SDS011;12071;50.850;4.446;2022-08-01T09:59:45;2.17;;;1.10;;
23782;SDS011;12071;50.850;4.446;2022-08-01T10:02:13;1.67;;;1.10;;
23782;SDS011;12071;50.850;4.446;2022-08-01T10:04:51;1.80;;;1.10;;
23782;SDS011;12071;50.850;4.446;2022-08-01T10:07:17;1.30;;;1.20;;
23782;SDS011;12071;50.850;4.446;2022-08-01T10:09:43;2.03;;;1.35;;
23782;SDS011;12071;50.850;4.446;2022-08-01T10:12:11;4.50;;;1.42;;
23782;SDS011;12071;50.850;4.446;2022-08-01T10:14:38;2.70;;;1.23;;
23782;SDS011;12071;50.850;4.446;2022-08-01T10:17:06;2.20;;;1.15;;
23782;SDS011;12071;50.850;4.446;2022-08-01T10:19:34;1.20;;;1.00;;
23782;SDS011;12071;50.850;4.446;2022-08-01T10:22:01;2.85;;;1.10;;
23782;SDS011;12071;50.850;4.446;2022-08-01T10:24:34;2.28;;;1.10;;
23782;SDS011;12071;50.850;4.446;2022-08-01T10:27:03;3.13;;;1.30;;
23782;SDS011;12071;50.850;4.446;2022-08-01T10:29:34;2.15;;;0.90;;
23782;SDS011;12071;50.850;4.446;2022-08-01T10:32:12;4.20;;;1.33;;
23782;SDS011;12071;50.850;4.446;2022-08-01T10:34:37;3.38;;;0.95;;
23782;SDS011;12071;50.850;4.446;2022-08-01T10:37:04;6.30;;;1.00;;
23782;SDS011;12071;50.850;4.446;2022-08-01T10:39:30;3.95;;;1.10;;
23782;SDS011;12071;50.850;4.446;2022-08-01T10:41:57;0.90;;;0.70;;
23782;SDS011;12071;50.850;4.446;2022-08-01T10:44:24;2.53;;;1.08;;
23782;SDS011;12071;50.850;4.446;2022-08-01T10:46:52;3.65;;;1.42;;
23782;SDS011;12071;50.850;4.446;2022-08-01T10:49:22;2.30;;;1.20;;
23782;SDS011;12071;50.850;4.446;2022-08-01T10:51:51;2.75;;;1.77;;
23782;SDS011;12071;50.850;4.446;2022-08-01T10:54:17;4.25;;;1.60;;
23782;SDS011;12071;50.850;4.446;2022-08-01T10:56:43;2.13;;;1.90;;
23782;SDS011;12071;50.850;4.446;2022-08-01T10:59:14;4.63;;;1.90;;
23782;SDS011;12071;50.850;4.446;2022-08-01T11:01:56;3.50;;;2.15;;
23782;SDS011;12071;50.850;4.446;2022-08-01T11:07:13;3.70;;;1.83;;
23782;SDS011;12071;50.850;4.446;2022-08-01T11:09:44;1.85;;;1.73;;
23782;SDS011;12071;50.850;4.446;2022-08-01T11:12:12;2.50;;;1.88;;
23782;SDS011;12071;50.850;4.446;2022-08-01T11:17:38;3.97;;;1.80;;
23782;SDS011;12071;50.850;4.446;2022-08-01T11:20:15;2.42;;;1.60;;
23782;SDS011;12071;50.850;4.446;2022-08-01T11:30:42;1.38;;;1.20;;
23782;SDS011;12071;50.850;4.446;2022-08-01T11:33:09;1.40;;;0.90;;
23782;SDS011;12071;50.850;4.446;2022-08-01T11:35:36;6.47;;;1.20;;
23782;SDS011;12071;50.850;4.446;2022-08-01T11:38:26;1.55;;;0.82;;
23782;SDS011;12071;50.850;4.446;2022-08-01T11:43:59;0.43;;;0.40;;
23782;SDS011;12071;50.850;4.446;2022-08-01T11:47:34;0.73;;;0.50;;
23782;SDS011;12071;50.850;4.446;2022-08-01T11:49:48;1.08;;;0.75;;
23782;SDS011;12071;50.850;4.446;2022-08-01T11:54:54;2.15;;;0.57;;
23782;SDS011;12071;50.850;4.446;2022-08-01T11:57:23;2.40;;;0.68;;
23782;SDS011;12071;50.850;4.446;2022-08-01T11:59:52;3.38;;;0.60;;
23782;SDS011;12071;50.850;4.446;2022-08-01T12:04:56;1.80;;;0.68;;
23782;SDS011;12071;50.850;4.446;2022-08-01T12:07:28;2.67;;;0.80;;
23782;SDS011;12071;50.850;4.446;2022-08-01T12:12:31;1.85;;;0.60;;
23782;SDS011;12071;50.850;4.446;2022-08-01T12:14:59;0.70;;;0.70;;
23782;SDS011;12071;50.850;4.446;2022-08-01T12:19:56;5.05;;;0.80;;
23782;SDS011;12071;50.850;4.446;2022-08-01T12:22:22;1.23;;;0.68;;
23782;SDS011;12071;50.850;4.446;2022-08-01T12:24:49;4.22;;;0.90;;
23782;SDS011;12071;50.850;4.446;2022-08-01T12:27:24;7.18;;;0.88;;
23782;SDS011;12071;50.850;4.446;2022-08-01T12:29:51;2.90;;;1.02;;
23782;SDS011;12071;50.850;4.446;2022-08-01T12:32:21;1.17;;;0.80;;
23782;SDS011;12071;50.850;4.446;2022-08-01T12:34:56;0.75;;;0.73;;
23782;SDS011;12071;50.850;4.446;2022-08-01T12:37:25;1.25;;;0.60;;
23782;SDS011;12071;50.850;4.446;2022-08-01T12:39:51;2.78;;;0.80;;
23782;SDS011;12071;50.850;4.446;2022-08-01T12:42:17;1.40;;;0.60;;
23782;SDS011;12071;50.850;4.446;2022-08-01T12:44:44;3.03;;;0.90;;
23782;SDS011;12071;50.850;4.446;2022-08-01T12:47:12;2.78;;;0.90;;
23782;SDS011;12071;50.850;4.446;2022-08-01T12:49:40;2.28;;;0.82;;
23782;SDS011;12071;50.850;4.446;2022-08-01T12:52:07;2.58;;;0.82;;
23782;SDS011;12071;50.850;4.446;2022-08-01T12:55:34;2.33;;;0.73;;
23782;SDS011;12071;50.850;4.446;2022-08-01T12:57:33;2.83;;;0.82;;
23782;SDS011;12071;50.850;4.446;2022-08-01T13:00:05;3.20;;;1.15;;
23782;SDS011;12071;50.850;4.446;2022-08-01T13:02:32;1.85;;;0.95;;
23782;SDS011;12071;50.850;4.446;2022-08-01T13:04:58;2.28;;;0.77;;
23782;SDS011;12071;50.850;4.446;2022-08-01T13:07:34;1.58;;;0.80;;
23782;SDS011;12071;50.850;4.446;2022-08-01T13:10:03;2.30;;;0.75;;
23782;SDS011;12071;50.850;4.446;2022-08-01T13:12:30;4.40;;;0.85;;
23782;SDS011;12071;50.850;4.446;2022-08-01T13:14:56;2.67;;;0.80;;
23782;SDS011;12071;50.850;4.446;2022-08-01T13:17:31;1.30;;;0.90;;
23782;SDS011;12071;50.850;4.446;2022-08-01T13:19:58;1.50;;;0.80;;
23782;SDS011;12071;50.850;4.446;2022-08-01T13:22:34;3.45;;;0.75;;
23782;SDS011;12071;50.850;4.446;2022-08-01T13:25:15;3.50;;;0.77;;
23782;SDS011;12071;50.850;4.446;2022-08-01T13:27:41;2.78;;;0.70;;
23782;SDS011;12071;50.850;4.446;2022-08-01T13:30:17;1.98;;;0.82;;
23782;SDS011;12071;50.850;4.446;2022-08-01T13:32:44;2.78;;;0.98;;
23782;SDS011;12071;50.850;4.446;2022-08-01T13:35:25;4.70;;;1.00;;
23782;SDS011;12071;50.850;4.446;2022-08-01T13:37:51;1.90;;;0.70;;
23782;SDS011;12071;50.850;4.446;2022-08-01T13:40:24;4.57;;;0.77;;
23782;SDS011;12071;50.850;4.446;2022-08-01T13:42:51;1.10;;;0.60;;
23782;SDS011;12071;50.850;4.446;2022-08-01T13:45:19;2.72;;;0.63;;
23782;SDS011;12071;50.850;4.446;2022-08-01T13:47:45;2.78;;;0.60;;
23782;SDS011;12071;50.850;4.446;2022-08-01T13:50:10;3.08;;;0.77;;
23782;SDS011;12071;50.850;4.446;2022-08-01T13:52:36;6.35;;;0.88;;
23782;SDS011;12071;50.850;4.446;2022-08-01T13:55:01;0.95;;;0.65;;
23782;SDS011;12071;50.850;4.446;2022-08-01T13:57:27;3.72;;;0.93;;
23782;SDS011;12071;50.850;4.446;2022-08-01T13:59:53;1.63;;;0.85;;
23782;SDS011;12071;50.850;4.446;2022-08-01T14:02:20;2.38;;;0.70;;
23782;SDS011;12071;50.850;4.446;2022-08-01T14:04:45;2.50;;;0.80;;
23782;SDS011;12071;50.850;4.446;2022-08-01T14:07:11;2.83;;;0.90;;
23782;SDS011;12071;50.850;4.446;2022-08-01T14:09:37;2.60;;;0.82;;
23782;SDS011;12071;50.850;4.446;2022-08-01T14:12:03;2.47;;;0.90;;
23782;SDS011;12071;50.850;4.446;2022-08-01T14:14:29;3.33;;;0.73;;
23782;SDS011;12071;50.850;4.446;2022-08-01T14:16:55;1.17;;;0.70;;
23782;SDS011;12071;50.850;4.446;2022-08-01T14:19:21;3.92;;;0.80;;
23782;SDS011;12071;50.850;4.446;2022-08-01T14:21:47;1.63;;;0.90;;
23782;SDS011;12071;50.850;4.446;2022-08-01T14:24:13;1.42;;;0.80;;
23782;SDS011;12071;50.850;4.446;2022-08-01T14:26:38;1.50;;;0.63;;
23782;SDS011;12071;50.850;4.446;2022-08-01T14:29:04;2.15;;;0.80;;
23782;SDS011;12071;50.850;4.446;2022-08-01T14:31:29;2.38;;;0.80;;
23782;SDS011;12071;50.850;4.446;2022-08-01T14:33:55;2.08;;;0.88;;
23782;SDS011;12071;50.850;4.446;2022-08-01T14:36:21;2.70;;;0.70;;
23782;SDS011;12071;50.850;4.446;2022-08-01T14:38:46;2.25;;;0.73;;
23782;SDS011;12071;50.850;4.446;2022-08-01T14:41:13;2.75;;;0.70;;
23782;SDS011;12071;50.850;4.446;2022-08-01T14:43:41;1.13;;;0.70;;
23782;SDS011;12071;50.850;4.446;2022-08-01T14:46:07;1.65;;;0.80;;
23782;SDS011;12071;50.850;4.446;2022-08-01T14:48:34;2.53;;;0.90;;
23782;SDS011;12071;50.850;4.446;2022-08-01T14:51:00;4.07;;;0.98;;
23782;SDS011;12071;50.850;4.446;2022-08-01T14:53:27;1.45;;;0.88;;
23782;SDS011;12071;50.850;4.446;2022-08-01T14:55:53;3.17;;;0.80;;
23782;SDS011;12071;50.850;4.446;2022-08-01T14:58:19;2.17;;;0.75;;
23782;SDS011;12071;50.850;4.446;2022-08-01T15:00:44;3.42;;;1.30;;
23782;SDS011;12071;50.850;4.446;2022-08-01T15:03:10;2.22;;;0.80;;
23782;SDS011;12071;50.850;4.446;2022-08-01T15:05:36;1.38;;;0.80;;
23782;SDS011;12071;50.850;4.446;2022-08-01T15:08:02;1.50;;;0.90;;
23782;SDS011;12071;50.850;4.446;2022-08-01T15:10:28;1.05;;;0.68;;
23782;SDS011;12071;50.850;4.446;2022-08-01T15:12:54;1.40;;;0.70;;
23782;SDS011;12071;50.850;4.446;2022-08-01T15:15:20;1.75;;;0.70;;
23782;SDS011;12071;50.850;4.446;2022-08-01T15:17:46;1.10;;;0.60;;
23782;SDS011;12071;50.850;4.446;2022-08-01T15:20:12;2.20;;;0.85;;
23782;SDS011;12071;50.850;4.446;2022-08-01T15:22:37;1.20;;;0.70;;
23782;SDS011;12071;50.850;4.446;2022-08-01T15:25:03;2.15;;;0.70;;
23782;SDS011;12071;50.850;4.446;2022-08-01T15:27:29;1.60;;;0.73;;
23782;SDS011;12071;50.850;4.446;2022-08-01T15:29:55;4.80;;;0.80;;
23782;SDS011;12071;50.850;4.446;2022-08-01T15:32:21;2.72;;;0.80;;
23782;SDS011;12071;50.850;4.446;2022-08-01T15:34:47;0.60;;;0.57;;
23782;SDS011;12071;50.850;4.446;2022-08-01T15:37:13;3.70;;;0.90;;
23782;SDS011;12071;50.850;4.446;2022-08-01T15:39:39;2.08;;;0.70;;